sensor_id;sensor_type;location;lat;lon;timestamp;P1;durP1;ratioP1;P2;durP2;ratioP2
62543;SDS011;48597;49.030;1.822;2023-08-24T00:01:57;1.98;;;1.70;;
62543;SDS011;48597;49.030;1.822;2023-08-24T00:04:22;2.25;;;2.05;;
62543;SDS011;48597;49.030;1.822;2023-08-24T00:06:47;1.92;;;1.55;;
62543;SDS011;48597;49.030;1.822;2023-08-24T00:09:13;2.10;;;1.90;;
62543;SDS011;48597;49.030;1.822;2023-08-24T00:11:40;2.25;;;1.90;;
62543;SDS011;48597;49.030;1.822;2023-08-24T00:14:05;1.85;;;1.67;;
62543;SDS011;48597;49.030;1.822;2023-08-24T00:16:31;2.20;;;1.95;;
62543;SDS011;48597;49.030;1.822;2023-08-24T00:19:00;2.42;;;1.90;;
62543;SDS011;48597;49.030;1.822;2023-08-24T00:21:25;2.40;;;1.98;;
62543;SDS011;48597;49.030;1.822;2023-08-24T00:23:51;2.70;;;2.05;;
62543;SDS011;48597;49.030;1.822;2023-08-24T00:26:17;2.10;;;1.90;;
62543;SDS011;48597;49.030;1.822;2023-08-24T00:28:43;2.47;;;2.15;;
62543;SDS011;48597;49.030;1.822;2023-08-24T00:31:09;2.42;;;1.92;;
62543;SDS011;48597;49.030;1.822;2023-08-24T00:33:34;2.38;;;2.17;;
62543;SDS011;48597;49.030;1.822;2023-08-24T00:36:00;1.90;;;1.80;;
62543;SDS011;48597;49.030;1.822;2023-08-24T00:38:26;2.30;;;2.10;;
62543;SDS011;48597;49.030;1.822;2023-08-24T00:40:52;3.00;;;2.00;;
62543;SDS011;48597;49.030;1.822;2023-08-24T00:43:19;2.20;;;2.00;;
62543;SDS011;48597;49.030;1.822;2023-08-24T00:45:50;2.00;;;1.90;;
62543;SDS011;48597;49.030;1.822;2023-08-24T00:48:17;2.40;;;2.20;;
62543;SDS011;48597;49.030;1.822;2023-08-24T00:50:50;2.03;;;1.90;;
62543;SDS011;48597;49.030;1.822;2023-08-24T00:53:16;3.13;;;2.20;;
62543;SDS011;48597;49.030;1.822;2023-08-24T00:55:44;2.33;;;1.92;;
62543;SDS011;48597;49.030;1.822;2023-08-24T00:58:09;2.85;;;2.20;;
62543;SDS011;48597;49.030;1.822;2023-08-24T01:00:35;2.90;;;2.00;;
62543;SDS011;48597;49.030;1.822;2023-08-24T01:03:01;2.38;;;2.17;;
62543;SDS011;48597;49.030;1.822;2023-08-24T01:05:26;2.42;;;1.80;;
62543;SDS011;48597;49.030;1.822;2023-08-24T01:07:52;3.30;;;2.08;;
62543;SDS011;48597;49.030;1.822;2023-08-24T01:10:17;2.58;;;2.38;;
62543;SDS011;48597;49.030;1.822;2023-08-24T01:16:24;3.03;;;2.00;;
62543;SDS011;48597;49.030;1.822;2023-08-24T01:18:20;4.13;;;2.42;;
62543;SDS011;48597;49.030;1.822;2023-08-24T01:20:51;4.03;;;2.40;;
62543;SDS011;48597;49.030;1.822;2023-08-24T01:26:11;5.78;;;2.42;;
62543;SDS011;48597;49.030;1.822;2023-08-24T01:28:39;3.08;;;2.25;;
62543;SDS011;48597;49.030;1.822;2023-08-24T01:31:06;2.72;;;2.08;;
62543;SDS011;48597;49.030;1.822;2023-08-24T01:33:33;3.65;;;2.28;;
62543;SDS011;48597;49.030;1.822;2023-08-24T01:35:59;2.97;;;2.08;;
62543;SDS011;48597;49.030;1.822;2023-08-24T01:38:24;4.20;;;2.03;;
62543;SDS011;48597;49.030;1.822;2023-08-24T01:43:38;2.40;;;2.20;;
62543;SDS011;48597;49.030;1.822;2023-08-24T01:46:05;3.00;;;1.80;;
62543;SDS011;48597;49.030;1.822;2023-08-24T01:48:32;3.33;;;2.38;;
62543;SDS011;48597;49.030;1.822;2023-08-24T01:50:58;3.08;;;1.90;;
62543;SDS011;48597;49.030;1.822;2023-08-24T01:53:26;3.50;;;2.30;;
62543;SDS011;48597;49.030;1.822;2023-08-24T01:55:53;2.40;;;2.17;;
62543;SDS011;48597;49.030;1.822;2023-08-24T01:58:18;3.30;;;2.17;;
62543;SDS011;48597;49.030;1.822;2023-08-24T02:00:45;2.25;;;1.90;;
62543;SDS011;48597;49.030;1.822;2023-08-24T02:03:10;2.72;;;2.17;;
62543;SDS011;48597;49.030;1.822;2023-08-24T02:05:35;2.63;;;2.15;;
62543;SDS011;48597;49.030;1.822;2023-08-24T02:08:01;2.10;;;2.00;;
62543;SDS011;48597;49.030;1.822;2023-08-24T02:10:26;2.83;;;2.00;;
62543;SDS011;48597;49.030;1.822;2023-08-24T02:12:52;4.13;;;2.15;;
62543;SDS011;48597;49.030;1.822;2023-08-24T02:15:17;2.42;;;2.05;;
62543;SDS011;48597;49.030;1.822;2023-08-24T02:17:42;3.45;;;1.98;;
62543;SDS011;48597;49.030;1.822;2023-08-24T02:20:08;2.50;;;2.10;;
62543;SDS011;48597;49.030;1.822;2023-08-24T02:22:36;3.10;;;2.20;;
62543;SDS011;48597;49.030;1.822;2023-08-24T02:25:01;2.22;;;1.98;;
62543;SDS011;48597;49.030;1.822;2023-08-24T02:27:28;2.30;;;2.10;;
62543;SDS011;48597;49.030;1.822;2023-08-24T02:29:53;2.90;;;1.88;;
62543;SDS011;48597;49.030;1.822;2023-08-24T02:32:18;3.00;;;2.15;;
62543;SDS011;48597;49.030;1.822;2023-08-24T02:34:44;2.75;;;2.15;;
62543;SDS011;48597;49.030;1.822;2023-08-24T02:37:09;2.35;;;2.15;;
62543;SDS011;48597;49.030;1.822;2023-08-24T02:39:35;3.10;;;2.10;;
62543;SDS011;48597;49.030;1.822;2023-08-24T02:42:00;2.22;;;2.03;;
62543;SDS011;48597;49.030;1.822;2023-08-24T02:44:26;2.60;;;1.85;;
62543;SDS011;48597;49.030;1.822;2023-08-24T02:46:53;2.45;;;2.08;;
62543;SDS011;48597;49.030;1.822;2023-08-24T02:49:19;2.80;;;2.30;;
62543;SDS011;48597;49.030;1.822;2023-08-24T02:51:44;2.40;;;1.90;;
62543;SDS011;48597;49.030;1.822;2023-08-24T02:54:10;2.20;;;1.90;;
62543;SDS011;48597;49.030;1.822;2023-08-24T02:56:35;2.33;;;2.13;;
62543;SDS011;48597;49.030;1.822;2023-08-24T02:59:00;2.28;;;2.00;;
62543;SDS011;48597;49.030;1.822;2023-08-24T03:01:26;2.22;;;1.95;;
62543;SDS011;48597;49.030;1.822;2023-08-24T03:03:52;3.00;;;2.05;;
62543;SDS011;48597;49.030;1.822;2023-08-24T03:06:17;2.40;;;2.00;;
62543;SDS011;48597;49.030;1.822;2023-08-24T03:08:42;2.40;;;1.90;;
62543;SDS011;48597;49.030;1.822;2023-08-24T03:11:08;2.25;;;2.03;;
62543;SDS011;48597;49.030;1.822;2023-08-24T03:13:35;3.28;;;2.40;;
62543;SDS011;48597;49.030;1.822;2023-08-24T03:16:03;2.33;;;2.13;;
62543;SDS011;48597;49.030;1.822;2023-08-24T03:18:30;2.55;;;1.90;;
62543;SDS011;48597;49.030;1.822;2023-08-24T03:20:55;2.63;;;1.95;;
62543;SDS011;48597;49.030;1.822;2023-08-24T03:23:21;2.72;;;2.28;;
62543;SDS011;48597;49.030;1.822;2023-08-24T03:25:47;3.55;;;2.30;;
62543;SDS011;48597;49.030;1.822;2023-08-24T03:28:12;2.30;;;2.10;;
62543;SDS011;48597;49.030;1.822;2023-08-24T03:30:38;2.53;;;2.00;;
62543;SDS011;48597;49.030;1.822;2023-08-24T03:33:11;2.40;;;1.95;;
62543;SDS011;48597;49.030;1.822;2023-08-24T03:35:37;2.53;;;1.98;;
62543;SDS011;48597;49.030;1.822;2023-08-24T03:38:02;2.20;;;2.00;;
62543;SDS011;48597;49.030;1.822;2023-08-24T03:40:29;2.30;;;2.10;;
62543;SDS011;48597;49.030;1.822;2023-08-24T03:42:55;2.20;;;2.00;;
62543;SDS011;48597;49.030;1.822;2023-08-24T03:45:20;2.38;;;2.15;;
62543;SDS011;48597;49.030;1.822;2023-08-24T03:47:46;4.25;;;2.33;;
62543;SDS011;48597;49.030;1.822;2023-08-24T03:50:12;2.20;;;1.92;;
62543;SDS011;48597;49.030;1.822;2023-08-24T03:52:37;2.40;;;1.80;;
62543;SDS011;48597;49.030;1.822;2023-08-24T03:55:04;2.75;;;1.90;;
62543;SDS011;48597;49.030;1.822;2023-08-24T03:57:31;2.85;;;1.95;;
62543;SDS011;48597;49.030;1.822;2023-08-24T03:59:56;2.58;;;2.10;;
62543;SDS011;48597;49.030;1.822;2023-08-24T04:02:22;2.15;;;1.77;;
62543;SDS011;48597;49.030;1.822;2023-08-24T04:04:47;2.78;;;2.20;;
62543;SDS011;48597;49.030;1.822;2023-08-24T04:07:13;1.95;;;1.85;;
62543;SDS011;48597;49.030;1.822;2023-08-24T04:09:38;2.80;;;2.05;;
62543;SDS011;48597;49.030;1.822;2023-08-24T04:12:03;2.78;;;1.92;;
62543;SDS011;48597;49.030;1.822;2023-08-24T04:14:29;2.35;;;2.00;;
62543;SDS011;48597;49.030;1.822;2023-08-24T04:16:54;2.10;;;1.90;;
62543;SDS011;48597;49.030;1.822;2023-08-24T04:19:20;2.40;;;1.88;;
62543;SDS011;48597;49.030;1.822;2023-08-24T04:21:46;2.83;;;2.03;;
62543;SDS011;48597;49.030;1.822;2023-08-24T04:24:11;2.13;;;1.88;;
62543;SDS011;48597;49.030;1.822;2023-08-24T04:26:37;2.10;;;1.90;;
62543;SDS011;48597;49.030;1.822;2023-08-24T04:29:02;2.38;;;1.90;;
62543;SDS011;48597;49.030;1.822;2023-08-24T04:31:27;2.67;;;2.00;;
62543;SDS011;48597;49.030;1.822;2023-08-24T04:33:53;3.05;;;2.17;;
62543;SDS011;48597;49.030;1.822;2023-08-24T04:36:18;2.55;;;1.95;;
62543;SDS011;48597;49.030;1.822;2023-08-24T04:38:44;2.22;;;2.00;;
62543;SDS011;48597;49.030;1.822;2023-08-24T04:41:09;1.98;;;1.80;;
62543;SDS011;48597;49.030;1.822;2023-08-24T04:43:35;2.42;;;2.10;;
62543;SDS011;48597;49.030;1.822;2023-08-24T04:46:01;2.42;;;1.92;;
62543;SDS011;48597;49.030;1.822;2023-08-24T04:48:27;2.20;;;2.00;;
62543;SDS011;48597;49.030;1.822;2023-08-24T04:50:52;2.58;;;2.05;;
62543;SDS011;48597;49.030;1.822;2023-08-24T04:53:19;1.80;;;1.70;;
62543;SDS011;48597;49.030;1.822;2023-08-24T04:55:45;3.53;;;1.98;;
62543;SDS011;48597;49.030;1.822;2023-08-24T04:58:11;1.98;;;1.77;;
62543;SDS011;48597;49.030;1.822;2023-08-24T05:00:41;2.45;;;1.77;;
62543;SDS011;48597;49.030;1.822;2023-08-24T05:03:06;2.13;;;1.92;;
62543;SDS011;48597;49.030;1.822;2023-08-24T05:05:33;2.78;;;2.10;;
62543;SDS011;48597;49.030;1.822;2023-08-24T05:07:59;2.60;;;1.90;;
62543;SDS011;48597;49.030;1.822;2023-08-24T05:10:26;2.15;;;1.95;;
62543;SDS011;48597;49.030;1.822;2023-08-24T05:12:55;3.03;;;2.00;;
62543;SDS011;48597;49.030;1.822;2023-08-24T05:15:20;2.35;;;2.00;;
62543;SDS011;48597;49.030;1.822;2023-08-24T05:17:46;2.53;;;2.13;;
62543;SDS011;48597;49.030;1.822;2023-08-24T05:20:11;2.20;;;2.03;;
62543;SDS011;48597;49.030;1.822;2023-08-24T05:22:37;2.80;;;2.05;;
62543;SDS011;48597;49.030;1.822;2023-08-24T05:25:03;2.10;;;1.77;;
62543;SDS011;48597;49.030;1.822;2023-08-24T05:27:29;3.15;;;2.20;;
62543;SDS011;48597;49.030;1.822;2023-08-24T05:29:55;2.40;;;2.00;;
62543;SDS011;48597;49.030;1.822;2023-08-24T05:32:20;1.95;;;1.85;;
62543;SDS011;48597;49.030;1.822;2023-08-24T05:34:46;2.28;;;2.08;;
62543;SDS011;48597;49.030;1.822;2023-08-24T05:37:11;2.10;;;1.90;;
62543;SDS011;48597;49.030;1.822;2023-08-24T05:39:37;2.30;;;2.00;;
62543;SDS011;48597;49.030;1.822;2023-08-24T05:42:02;2.40;;;2.20;;
62543;SDS011;48597;49.030;1.822;2023-08-24T05:44:28;2.78;;;1.98;;
62543;SDS011;48597;49.030;1.822;2023-08-24T05:46:53;4.22;;;2.15;;
62543;SDS011;48597;49.030;1.822;2023-08-24T05:49:18;2.10;;;1.90;;
62543;SDS011;48597;49.030;1.822;2023-08-24T05:51:44;2.30;;;2.10;;
62543;SDS011;48597;49.030;1.822;2023-08-24T05:54:10;3.38;;;1.85;;
62543;SDS011;48597;49.030;1.822;2023-08-24T05:56:35;2.92;;;2.25;;
62543;SDS011;48597;49.030;1.822;2023-08-24T05:59:01;2.30;;;2.10;;
62543;SDS011;48597;49.030;1.822;2023-08-24T06:01:26;2.60;;;2.10;;
62543;SDS011;48597;49.030;1.822;2023-08-24T06:03:52;2.42;;;2.22;;
62543;SDS011;48597;49.030;1.822;2023-08-24T06:06:17;2.20;;;2.00;;
62543;SDS011;48597;49.030;1.822;2023-08-24T06:08:42;2.88;;;1.90;;
62543;SDS011;48597;49.030;1.822;2023-08-24T06:11:08;2.47;;;2.17;;
62543;SDS011;48597;49.030;1.822;2023-08-24T06:13:34;2.20;;;2.00;;
62543;SDS011;48597;49.030;1.822;2023-08-24T06:15:59;1.67;;;1.58;;
62543;SDS011;48597;49.030;1.822;2023-08-24T06:18:26;2.33;;;2.13;;
62543;SDS011;48597;49.030;1.822;2023-08-24T06:20:52;2.15;;;1.95;;
62543;SDS011;48597;49.030;1.822;2023-08-24T06:23:19;2.75;;;2.17;;
62543;SDS011;48597;49.030;1.822;2023-08-24T06:25:44;2.42;;;2.20;;
62543;SDS011;48597;49.030;1.822;2023-08-24T06:28:10;2.05;;;1.95;;
62543;SDS011;48597;49.030;1.822;2023-08-24T06:30:40;1.90;;;1.80;;
62543;SDS011;48597;49.030;1.822;2023-08-24T06:33:06;2.00;;;1.90;;
62543;SDS011;48597;49.030;1.822;2023-08-24T06:35:32;2.35;;;2.15;;
62543;SDS011;48597;49.030;1.822;2023-08-24T06:37:58;1.95;;;1.80;;
62543;SDS011;48597;49.030;1.822;2023-08-24T06:40:23;1.83;;;1.73;;
62543;SDS011;48597;49.030;1.822;2023-08-24T06:42:49;2.50;;;2.30;;
62543;SDS011;48597;49.030;1.822;2023-08-24T06:45:14;2.20;;;2.00;;
62543;SDS011;48597;49.030;1.822;2023-08-24T06:47:40;2.20;;;2.00;;
62543;SDS011;48597;49.030;1.822;2023-08-24T06:50:06;2.13;;;1.92;;
62543;SDS011;48597;49.030;1.822;2023-08-24T06:52:31;2.05;;;1.70;;
62543;SDS011;48597;49.030;1.822;2023-08-24T06:54:57;2.00;;;1.77;;
62543;SDS011;48597;49.030;1.822;2023-08-24T06:57:24;2.30;;;2.10;;
62543;SDS011;48597;49.030;1.822;2023-08-24T06:59:50;2.60;;;1.88;;
62543;SDS011;48597;49.030;1.822;2023-08-24T07:02:16;2.20;;;1.80;;
62543;SDS011;48597;49.030;1.822;2023-08-24T07:04:43;2.10;;;1.90;;
62543;SDS011;48597;49.030;1.822;2023-08-24T07:07:09;2.38;;;1.88;;
62543;SDS011;48597;49.030;1.822;2023-08-24T07:09:35;2.25;;;2.05;;
62543;SDS011;48597;49.030;1.822;2023-08-24T07:12:01;2.10;;;1.90;;
62543;SDS011;48597;49.030;1.822;2023-08-24T07:14:28;2.88;;;2.28;;
62543;SDS011;48597;49.030;1.822;2023-08-24T07:16:53;2.10;;;1.90;;
62543;SDS011;48597;49.030;1.822;2023-08-24T07:19:19;2.28;;;2.05;;
62543;SDS011;48597;49.030;1.822;2023-08-24T07:21:44;2.58;;;2.00;;
62543;SDS011;48597;49.030;1.822;2023-08-24T07:24:10;2.08;;;1.88;;
62543;SDS011;48597;49.030;1.822;2023-08-24T07:26:36;2.03;;;1.80;;
62543;SDS011;48597;49.030;1.822;2023-08-24T07:29:01;2.00;;;1.80;;
62543;SDS011;48597;49.030;1.822;2023-08-24T07:31:27;2.80;;;1.90;;
62543;SDS011;48597;49.030;1.822;2023-08-24T07:33:52;2.40;;;1.85;;
62543;SDS011;48597;49.030;1.822;2023-08-24T07:36:18;2.35;;;1.98;;
62543;SDS011;48597;49.030;1.822;2023-08-24T07:38:44;2.13;;;1.80;;
62543;SDS011;48597;49.030;1.822;2023-08-24T07:41:11;2.28;;;2.08;;
62543;SDS011;48597;49.030;1.822;2023-08-24T07:43:37;2.20;;;2.00;;
62543;SDS011;48597;49.030;1.822;2023-08-24T07:46:02;2.38;;;2.10;;
62543;SDS011;48597;49.030;1.822;2023-08-24T07:48:29;2.20;;;1.75;;
62543;SDS011;48597;49.030;1.822;2023-08-24T07:50:55;2.45;;;1.88;;
62543;SDS011;48597;49.030;1.822;2023-08-24T07:53:20;2.25;;;2.05;;
62543;SDS011;48597;49.030;1.822;2023-08-24T07:55:46;2.38;;;2.00;;
62543;SDS011;48597;49.030;1.822;2023-08-24T07:58:12;2.17;;;1.80;;
62543;SDS011;48597;49.030;1.822;2023-08-24T08:00:37;2.95;;;2.05;;
62543;SDS011;48597;49.030;1.822;2023-08-24T08:03:03;2.53;;;1.92;;
62543;SDS011;48597;49.030;1.822;2023-08-24T08:05:28;2.53;;;1.83;;
62543;SDS011;48597;49.030;1.822;2023-08-24T08:07:54;2.50;;;2.03;;
62543;SDS011;48597;49.030;1.822;2023-08-24T08:10:19;2.33;;;2.13;;
62543;SDS011;48597;49.030;1.822;2023-08-24T08:12:46;4.82;;;2.22;;
62543;SDS011;48597;49.030;1.822;2023-08-24T08:15:12;2.28;;;2.08;;
62543;SDS011;48597;49.030;1.822;2023-08-24T08:17:37;2.97;;;1.95;;
62543;SDS011;48597;49.030;1.822;2023-08-24T08:20:03;2.45;;;2.25;;
62543;SDS011;48597;49.030;1.822;2023-08-24T08:22:28;2.38;;;1.70;;
62543;SDS011;48597;49.030;1.822;2023-08-24T08:24:54;2.10;;;1.90;;
62543;SDS011;48597;49.030;1.822;2023-08-24T08:27:21;2.20;;;2.00;;
62543;SDS011;48597;49.030;1.822;2023-08-24T08:29:47;3.05;;;2.08;;
62543;SDS011;48597;49.030;1.822;2023-08-24T08:32:13;4.18;;;2.20;;
62543;SDS011;48597;49.030;1.822;2023-08-24T08:34:38;3.95;;;2.00;;
62543;SDS011;48597;49.030;1.822;2023-08-24T08:37:04;3.33;;;2.10;;
62543;SDS011;48597;49.030;1.822;2023-08-24T08:39:29;2.17;;;1.98;;
62543;SDS011;48597;49.030;1.822;2023-08-24T08:41:55;4.75;;;2.03;;
62543;SDS011;48597;49.030;1.822;2023-08-24T08:44:21;2.22;;;2.00;;
62543;SDS011;48597;49.030;1.822;2023-08-24T08:46:48;2.53;;;1.90;;
62543;SDS011;48597;49.030;1.822;2023-08-24T08:49:14;2.42;;;1.90;;
62543;SDS011;48597;49.030;1.822;2023-08-24T08:51:41;2.22;;;1.88;;
62543;SDS011;48597;49.030;1.822;2023-08-24T08:54:07;2.08;;;1.83;;
62543;SDS011;48597;49.030;1.822;2023-08-24T08:56:33;2.30;;;1.90;;
62543;SDS011;48597;49.030;1.822;2023-08-24T08:58:58;2.25;;;1.80;;
62543;SDS011;48597;49.030;1.822;2023-08-24T09:01:26;3.70;;;2.10;;
62543;SDS011;48597;49.030;1.822;2023-08-24T09:03:52;3.03;;;2.17;;
62543;SDS011;48597;49.030;1.822;2023-08-24T09:06:18;2.70;;;2.00;;
62543;SDS011;48597;49.030;1.822;2023-08-24T09:08:44;2.72;;;2.00;;
62543;SDS011;48597;49.030;1.822;2023-08-24T09:11:10;2.45;;;1.90;;
62543;SDS011;48597;49.030;1.822;2023-08-24T09:13:35;2.30;;;2.10;;
62543;SDS011;48597;49.030;1.822;2023-08-24T09:16:05;3.10;;;1.95;;
62543;SDS011;48597;49.030;1.822;2023-08-24T09:18:38;2.20;;;1.90;;
62543;SDS011;48597;49.030;1.822;2023-08-24T09:21:11;2.13;;;1.92;;
62543;SDS011;48597;49.030;1.822;2023-08-24T09:23:38;2.53;;;2.03;;
62543;SDS011;48597;49.030;1.822;2023-08-24T09:26:09;2.58;;;1.98;;
62543;SDS011;48597;49.030;1.822;2023-08-24T09:28:35;2.00;;;1.83;;
62543;SDS011;48597;49.030;1.822;2023-08-24T09:31:01;2.45;;;2.15;;
62543;SDS011;48597;49.030;1.822;2023-08-24T09:33:28;2.15;;;1.95;;
62543;SDS011;48597;49.030;1.822;2023-08-24T09:35:54;4.07;;;2.00;;
62543;SDS011;48597;49.030;1.822;2023-08-24T09:38:26;2.25;;;2.05;;
62543;SDS011;48597;49.030;1.822;2023-08-24T09:40:54;2.00;;;1.80;;
62543;SDS011;48597;49.030;1.822;2023-08-24T09:43:21;2.28;;;1.90;;
62543;SDS011;48597;49.030;1.822;2023-08-24T09:45:48;2.67;;;2.03;;
62543;SDS011;48597;49.030;1.822;2023-08-24T09:48:17;2.28;;;1.65;;
62543;SDS011;48597;49.030;1.822;2023-08-24T09:50:46;3.80;;;2.05;;
62543;SDS011;48597;49.030;1.822;2023-08-24T09:53:15;2.20;;;1.90;;
62543;SDS011;48597;49.030;1.822;2023-08-24T09:55:49;2.70;;;2.28;;
62543;SDS011;48597;49.030;1.822;2023-08-24T09:58:23;1.90;;;1.73;;
62543;SDS011;48597;49.030;1.822;2023-08-24T10:00:50;2.20;;;2.00;;
62543;SDS011;48597;49.030;1.822;2023-08-24T10:03:17;3.28;;;1.83;;
62543;SDS011;48597;49.030;1.822;2023-08-24T10:05:51;2.50;;;1.88;;
62543;SDS011;48597;49.030;1.822;2023-08-24T10:08:22;2.28;;;2.05;;
62543;SDS011;48597;49.030;1.822;2023-08-24T10:10:55;2.30;;;2.03;;
62543;SDS011;48597;49.030;1.822;2023-08-24T10:13:26;2.22;;;2.03;;
62543;SDS011;48597;49.030;1.822;2023-08-24T10:16:01;2.67;;;2.10;;
62543;SDS011;48597;49.030;1.822;2023-08-24T10:18:30;2.88;;;1.80;;
62543;SDS011;48597;49.030;1.822;2023-08-24T10:20:55;3.83;;;1.90;;
62543;SDS011;48597;49.030;1.822;2023-08-24T10:23:21;4.03;;;2.08;;
62543;SDS011;48597;49.030;1.822;2023-08-24T10:25:47;3.08;;;2.00;;
62543;SDS011;48597;49.030;1.822;2023-08-24T10:28:16;2.70;;;2.20;;
62543;SDS011;48597;49.030;1.822;2023-08-24T10:30:43;2.70;;;2.05;;
62543;SDS011;48597;49.030;1.822;2023-08-24T10:33:09;3.83;;;2.00;;
62543;SDS011;48597;49.030;1.822;2023-08-24T10:35:36;4.05;;;2.10;;
62543;SDS011;48597;49.030;1.822;2023-08-24T10:38:03;3.50;;;1.98;;
62543;SDS011;48597;49.030;1.822;2023-08-24T10:40:36;2.97;;;2.00;;
62543;SDS011;48597;49.030;1.822;2023-08-24T10:43:04;2.55;;;2.03;;
62543;SDS011;48597;49.030;1.822;2023-08-24T10:46:03;3.40;;;2.00;;
62543;SDS011;48597;49.030;1.822;2023-08-24T10:48:23;3.83;;;2.30;;
62543;SDS011;48597;49.030;1.822;2023-08-24T10:53:51;3.08;;;1.80;;
62543;SDS011;48597;49.030;1.822;2023-08-24T10:56:20;2.92;;;2.10;;
62543;SDS011;48597;49.030;1.822;2023-08-24T10:58:46;4.20;;;2.20;;
62543;SDS011;48597;49.030;1.822;2023-08-24T11:01:15;3.50;;;2.25;;
62543;SDS011;48597;49.030;1.822;2023-08-24T11:04:05;2.72;;;2.10;;
62543;SDS011;48597;49.030;1.822;2023-08-24T11:06:33;3.35;;;2.10;;
62543;SDS011;48597;49.030;1.822;2023-08-24T11:09:06;4.45;;;2.42;;
62543;SDS011;48597;49.030;1.822;2023-08-24T11:11:39;2.83;;;2.00;;
62543;SDS011;48597;49.030;1.822;2023-08-24T11:19:12;3.75;;;2.17;;
62543;SDS011;48597;49.030;1.822;2023-08-24T11:21:39;3.08;;;2.15;;
62543;SDS011;48597;49.030;1.822;2023-08-24T11:24:05;5.13;;;2.20;;
62543;SDS011;48597;49.030;1.822;2023-08-24T11:26:31;6.50;;;2.15;;
62543;SDS011;48597;49.030;1.822;2023-08-24T11:28:58;10.40;;;2.55;;
62543;SDS011;48597;49.030;1.822;2023-08-24T11:31:23;5.88;;;1.77;;
62543;SDS011;48597;49.030;1.822;2023-08-24T11:33:53;3.75;;;2.22;;
62543;SDS011;48597;49.030;1.822;2023-08-24T11:36:22;7.07;;;2.72;;
62543;SDS011;48597;49.030;1.822;2023-08-24T11:38:55;10.75;;;2.78;;
62543;SDS011;48597;49.030;1.822;2023-08-24T11:41:22;7.18;;;2.60;;
62543;SDS011;48597;49.030;1.822;2023-08-24T11:43:49;8.38;;;3.17;;
62543;SDS011;48597;49.030;1.822;2023-08-24T11:46:24;7.65;;;2.88;;
62543;SDS011;48597;49.030;1.822;2023-08-24T11:48:49;9.40;;;2.95;;
62543;SDS011;48597;49.030;1.822;2023-08-24T11:51:16;5.18;;;2.63;;
62543;SDS011;48597;49.030;1.822;2023-08-24T11:53:42;9.20;;;2.78;;
62543;SDS011;48597;49.030;1.822;2023-08-24T11:56:12;8.10;;;2.85;;
62543;SDS011;48597;49.030;1.822;2023-08-24T11:58:39;7.28;;;2.40;;
62543;SDS011;48597;49.030;1.822;2023-08-24T12:01:09;12.47;;;2.77;;
62543;SDS011;48597;49.030;1.822;2023-08-24T12:03:36;8.48;;;2.58;;
62543;SDS011;48597;49.030;1.822;2023-08-24T12:06:09;11.20;;;3.13;;
62543;SDS011;48597;49.030;1.822;2023-08-24T12:08:40;7.43;;;2.72;;
62543;SDS011;48597;49.030;1.822;2023-08-24T12:11:14;11.07;;;3.25;;
62543;SDS011;48597;49.030;1.822;2023-08-24T12:13:44;6.50;;;2.90;;
62543;SDS011;48597;49.030;1.822;2023-08-24T12:16:17;9.23;;;2.88;;
62543;SDS011;48597;49.030;1.822;2023-08-24T12:18:54;9.48;;;3.20;;
62543;SDS011;48597;49.030;1.822;2023-08-24T12:21:21;9.93;;;3.28;;
62543;SDS011;48597;49.030;1.822;2023-08-24T12:24:03;11.90;;;2.85;;
62543;SDS011;48597;49.030;1.822;2023-08-24T12:26:34;11.70;;;3.28;;
62543;SDS011;48597;49.030;1.822;2023-08-24T12:29:04;7.07;;;3.45;;
62543;SDS011;48597;49.030;1.822;2023-08-24T12:31:30;6.70;;;3.10;;
62543;SDS011;48597;49.030;1.822;2023-08-24T12:36:26;7.70;;;3.10;;
62543;SDS011;48597;49.030;1.822;2023-08-24T12:38:52;8.35;;;3.00;;
62543;SDS011;48597;49.030;1.822;2023-08-24T12:41:17;10.43;;;3.10;;
62543;SDS011;48597;49.030;1.822;2023-08-24T12:43:43;7.28;;;2.55;;
62543;SDS011;48597;49.030;1.822;2023-08-24T12:46:08;9.45;;;3.20;;
62543;SDS011;48597;49.030;1.822;2023-08-24T12:48:34;11.07;;;3.03;;
62543;SDS011;48597;49.030;1.822;2023-08-24T12:51:00;11.57;;;3.33;;
62543;SDS011;48597;49.030;1.822;2023-08-24T12:53:25;7.47;;;3.15;;
62543;SDS011;48597;49.030;1.822;2023-08-24T12:55:51;9.27;;;3.83;;
62543;SDS011;48597;49.030;1.822;2023-08-24T12:58:16;13.32;;;3.50;;
62543;SDS011;48597;49.030;1.822;2023-08-24T13:00:43;13.68;;;3.40;;
62543;SDS011;48597;49.030;1.822;2023-08-24T13:03:09;10.27;;;3.30;;
62543;SDS011;48597;49.030;1.822;2023-08-24T13:05:34;9.15;;;3.25;;
62543;SDS011;48597;49.030;1.822;2023-08-24T13:08:00;10.35;;;3.53;;
62543;SDS011;48597;49.030;1.822;2023-08-24T13:10:25;6.38;;;2.80;;
62543;SDS011;48597;49.030;1.822;2023-08-24T13:12:51;16.20;;;3.00;;
62543;SDS011;48597;49.030;1.822;2023-08-24T13:15:16;11.48;;;3.42;;
62543;SDS011;48597;49.030;1.822;2023-08-24T13:17:41;17.15;;;3.70;;
62543;SDS011;48597;49.030;1.822;2023-08-24T13:20:07;17.95;;;3.78;;
62543;SDS011;48597;49.030;1.822;2023-08-24T13:22:33;17.88;;;3.72;;
62543;SDS011;48597;49.030;1.822;2023-08-24T13:24:58;15.70;;;4.15;;
62543;SDS011;48597;49.030;1.822;2023-08-24T13:27:24;22.00;;;4.65;;
62543;SDS011;48597;49.030;1.822;2023-08-24T13:29:49;20.95;;;4.22;;
62543;SDS011;48597;49.030;1.822;2023-08-24T13:32:14;13.43;;;4.10;;
62543;SDS011;48597;49.030;1.822;2023-08-24T13:34:40;27.83;;;4.90;;
62543;SDS011;48597;49.030;1.822;2023-08-24T13:37:05;19.60;;;4.60;;
62543;SDS011;48597;49.030;1.822;2023-08-24T13:39:30;21.05;;;5.05;;
62543;SDS011;48597;49.030;1.822;2023-08-24T13:41:59;24.90;;;5.00;;
62543;SDS011;48597;49.030;1.822;2023-08-24T13:44:25;24.27;;;4.75;;
62543;SDS011;48597;49.030;1.822;2023-08-24T13:46:50;17.70;;;4.50;;
62543;SDS011;48597;49.030;1.822;2023-08-24T13:49:19;22.27;;;4.75;;
62543;SDS011;48597;49.030;1.822;2023-08-24T13:51:45;22.23;;;5.07;;
62543;SDS011;48597;49.030;1.822;2023-08-24T13:54:15;20.00;;;4.60;;
62543;SDS011;48597;49.030;1.822;2023-08-24T13:56:42;26.58;;;4.32;;
62543;SDS011;48597;49.030;1.822;2023-08-24T13:59:08;20.67;;;4.75;;
62543;SDS011;48597;49.030;1.822;2023-08-24T14:01:34;18.60;;;4.10;;
62543;SDS011;48597;49.030;1.822;2023-08-24T14:03:59;16.48;;;3.92;;
62543;SDS011;48597;49.030;1.822;2023-08-24T14:06:27;16.98;;;3.97;;
62543;SDS011;48597;49.030;1.822;2023-08-24T14:08:54;25.17;;;4.70;;
62543;SDS011;48597;49.030;1.822;2023-08-24T14:11:19;23.42;;;4.28;;
62543;SDS011;48597;49.030;1.822;2023-08-24T14:13:45;16.17;;;4.43;;
62543;SDS011;48597;49.030;1.822;2023-08-24T14:16:10;20.45;;;4.47;;
62543;SDS011;48597;49.030;1.822;2023-08-24T14:18:35;19.30;;;4.63;;
62543;SDS011;48597;49.030;1.822;2023-08-24T14:21:01;15.05;;;4.30;;
62543;SDS011;48597;49.030;1.822;2023-08-24T14:23:27;14.30;;;3.72;;
62543;SDS011;48597;49.030;1.822;2023-08-24T14:25:53;14.32;;;3.85;;
62543;SDS011;48597;49.030;1.822;2023-08-24T14:28:19;15.55;;;3.35;;
62543;SDS011;48597;49.030;1.822;2023-08-24T14:30:46;14.93;;;3.40;;
62543;SDS011;48597;49.030;1.822;2023-08-24T14:33:12;11.88;;;3.47;;
62543;SDS011;48597;49.030;1.822;2023-08-24T14:35:38;13.00;;;3.58;;
62543;SDS011;48597;49.030;1.822;2023-08-24T14:38:03;15.77;;;3.63;;
62543;SDS011;48597;49.030;1.822;2023-08-24T14:40:29;10.43;;;3.10;;
62543;SDS011;48597;49.030;1.822;2023-08-24T14:42:54;10.38;;;2.90;;
62543;SDS011;48597;49.030;1.822;2023-08-24T14:45:20;11.23;;;3.45;;
62543;SDS011;48597;49.030;1.822;2023-08-24T14:47:45;11.20;;;3.10;;
62543;SDS011;48597;49.030;1.822;2023-08-24T14:50:11;7.88;;;2.88;;
62543;SDS011;48597;49.030;1.822;2023-08-24T14:52:37;11.15;;;2.97;;
62543;SDS011;48597;49.030;1.822;2023-08-24T14:55:03;12.88;;;3.25;;
62543;SDS011;48597;49.030;1.822;2023-08-24T14:57:29;11.00;;;3.10;;
62543;SDS011;48597;49.030;1.822;2023-08-24T14:59:54;15.77;;;3.45;;
62543;SDS011;48597;49.030;1.822;2023-08-24T15:02:19;9.85;;;3.10;;